sensor_id;sensor_type;location;lat;lon;timestamp;P1;durP1;ratioP1;P2;durP2;ratioP2
53781;SDS011;39692;53.114;7.060;2022-10-29T00:01:42;15.50;;;5.18;;
53781;SDS011;39692;53.114;7.060;2022-10-29T00:04:08;13.30;;;4.75;;
53781;SDS011;39692;53.114;7.060;2022-10-29T00:06:34;17.13;;;6.43;;
53781;SDS011;39692;53.114;7.060;2022-10-29T00:08:59;15.98;;;7.00;;
53781;SDS011;39692;53.114;7.060;2022-10-29T00:11:25;13.02;;;4.18;;
53781;SDS011;39692;53.114;7.060;2022-10-29T00:13:55;11.70;;;4.82;;
53781;SDS011;39692;53.114;7.060;2022-10-29T00:16:23;12.48;;;4.90;;
53781;SDS011;39692;53.114;7.060;2022-10-29T00:18:50;28.10;;;8.15;;
53781;SDS011;39692;53.114;7.060;2022-10-29T00:21:17;18.10;;;4.88;;
53781;SDS011;39692;53.114;7.060;2022-10-29T00:23:44;15.43;;;4.50;;
53781;SDS011;39692;53.114;7.060;2022-10-29T00:26:11;15.82;;;4.65;;
53781;SDS011;39692;53.114;7.060;2022-10-29T00:28:37;16.85;;;6.68;;
53781;SDS011;39692;53.114;7.060;2022-10-29T00:31:04;11.73;;;4.80;;
53781;SDS011;39692;53.114;7.060;2022-10-29T00:33:31;16.77;;;4.60;;
53781;SDS011;39692;53.114;7.060;2022-10-29T00:35:57;20.65;;;6.88;;
53781;SDS011;39692;53.114;7.060;2022-10-29T00:38:25;11.00;;;4.65;;
53781;SDS011;39692;53.114;7.060;2022-10-29T00:40:51;11.27;;;5.20;;
53781;SDS011;39692;53.114;7.060;2022-10-29T00:43:19;11.50;;;4.97;;
53781;SDS011;39692;53.114;7.060;2022-10-29T00:45:52;16.10;;;6.35;;
53781;SDS011;39692;53.114;7.060;2022-10-29T00:48:40;9.43;;;4.40;;
53781;SDS011;39692;53.114;7.060;2022-10-29T00:51:10;13.88;;;4.80;;
53781;SDS011;39692;53.114;7.060;2022-10-29T00:53:41;19.10;;;5.55;;
53781;SDS011;39692;53.114;7.060;2022-10-29T00:56:09;10.90;;;4.50;;
53781;SDS011;39692;53.114;7.060;2022-10-29T00:58:37;14.85;;;5.03;;
53781;SDS011;39692;53.114;7.060;2022-10-29T01:01:03;14.00;;;5.30;;
53781;SDS011;39692;53.114;7.060;2022-10-29T01:03:29;12.48;;;4.90;;
53781;SDS011;39692;53.114;7.060;2022-10-29T01:05:55;15.60;;;4.70;;
53781;SDS011;39692;53.114;7.060;2022-10-29T01:08:20;16.02;;;5.57;;
53781;SDS011;39692;53.114;7.060;2022-10-29T01:10:53;20.40;;;6.72;;
53781;SDS011;39692;53.114;7.060;2022-10-29T01:17:23;9.05;;;3.80;;
53781;SDS011;39692;53.114;7.060;2022-10-29T01:22:48;17.38;;;5.65;;
53781;SDS011;39692;53.114;7.060;2022-10-29T01:28:56;9.25;;;4.13;;
53781;SDS011;39692;53.114;7.060;2022-10-29T01:34:27;11.73;;;5.70;;
53781;SDS011;39692;53.114;7.060;2022-10-29T01:37:13;10.80;;;3.83;;
53781;SDS011;39692;53.114;7.060;2022-10-29T01:40:03;10.45;;;4.20;;
53781;SDS011;39692;53.114;7.060;2022-10-29T01:42:35;19.23;;;6.30;;
53781;SDS011;39692;53.114;7.060;2022-10-29T01:47:37;14.90;;;4.20;;
53781;SDS011;39692;53.114;7.060;2022-10-29T01:50:07;11.32;;;4.50;;
53781;SDS011;39692;53.114;7.060;2022-10-29T01:52:37;14.05;;;4.53;;
53781;SDS011;39692;53.114;7.060;2022-10-29T01:55:03;10.90;;;4.13;;
53781;SDS011;39692;53.114;7.060;2022-10-29T02:00:07;7.28;;;2.58;;
53781;SDS011;39692;53.114;7.060;2022-10-29T02:02:44;20.58;;;3.20;;
53781;SDS011;39692;53.114;7.060;2022-10-29T02:05:17;15.82;;;4.50;;
53781;SDS011;39692;53.114;7.060;2022-10-29T02:13:54;15.45;;;4.40;;
53781;SDS011;39692;53.114;7.060;2022-10-29T02:16:24;12.38;;;4.05;;
53781;SDS011;39692;53.114;7.060;2022-10-29T02:18:51;12.73;;;4.88;;
53781;SDS011;39692;53.114;7.060;2022-10-29T02:21:17;11.93;;;4.72;;
53781;SDS011;39692;53.114;7.060;2022-10-29T02:23:44;35.65;;;7.38;;
53781;SDS011;39692;53.114;7.060;2022-10-29T02:26:11;25.85;;;5.80;;
53781;SDS011;39692;53.114;7.060;2022-10-29T02:28:37;12.88;;;4.22;;
53781;SDS011;39692;53.114;7.060;2022-10-29T02:31:03;59.95;;;6.90;;
53781;SDS011;39692;53.114;7.060;2022-10-29T02:33:28;41.30;;;5.82;;
53781;SDS011;39692;53.114;7.060;2022-10-29T02:35:54;19.55;;;4.97;;
53781;SDS011;39692;53.114;7.060;2022-10-29T02:38:20;29.05;;;5.25;;
53781;SDS011;39692;53.114;7.060;2022-10-29T02:40:45;19.88;;;4.50;;
53781;SDS011;39692;53.114;7.060;2022-10-29T02:43:11;62.25;;;6.35;;
53781;SDS011;39692;53.114;7.060;2022-10-29T02:45:37;17.25;;;4.93;;
53781;SDS011;39692;53.114;7.060;2022-10-29T02:48:02;45.85;;;5.82;;
53781;SDS011;39692;53.114;7.060;2022-10-29T02:50:28;32.78;;;5.30;;
53781;SDS011;39692;53.114;7.060;2022-10-29T02:52:54;26.48;;;4.35;;
53781;SDS011;39692;53.114;7.060;2022-10-29T02:55:19;55.10;;;6.18;;
53781;SDS011;39692;53.114;7.060;2022-10-29T02:57:45;12.45;;;3.42;;
53781;SDS011;39692;53.114;7.060;2022-10-29T03:00:11;18.83;;;3.85;;
53781;SDS011;39692;53.114;7.060;2022-10-29T03:02:38;102.32;;;10.18;;
53781;SDS011;39692;53.114;7.060;2022-10-29T03:05:04;49.10;;;6.68;;
53781;SDS011;39692;53.114;7.060;2022-10-29T03:07:33;34.75;;;6.20;;
53781;SDS011;39692;53.114;7.060;2022-10-29T03:10:01;34.20;;;4.60;;
53781;SDS011;39692;53.114;7.060;2022-10-29T03:12:30;23.15;;;4.88;;
53781;SDS011;39692;53.114;7.060;2022-10-29T03:14:56;68.80;;;7.32;;
53781;SDS011;39692;53.114;7.060;2022-10-29T03:17:21;29.08;;;4.28;;
53781;SDS011;39692;53.114;7.060;2022-10-29T03:19:47;64.13;;;6.03;;
53781;SDS011;39692;53.114;7.060;2022-10-29T03:22:13;52.13;;;7.28;;
53781;SDS011;39692;53.114;7.060;2022-10-29T03:24:38;57.72;;;6.28;;
53781;SDS011;39692;53.114;7.060;2022-10-29T03:27:04;66.82;;;6.75;;
53781;SDS011;39692;53.114;7.060;2022-10-29T03:29:29;68.38;;;7.18;;
53781;SDS011;39692;53.114;7.060;2022-10-29T03:31:55;62.03;;;5.75;;
53781;SDS011;39692;53.114;7.060;2022-10-29T03:34:21;140.70;;;9.68;;
53781;SDS011;39692;53.114;7.060;2022-10-29T03:36:47;33.33;;;4.18;;
53781;SDS011;39692;53.114;7.060;2022-10-29T03:39:12;35.70;;;4.30;;
53781;SDS011;39692;53.114;7.060;2022-10-29T03:45:19;20.38;;;4.20;;
53781;SDS011;39692;53.114;7.060;2022-10-29T03:47:45;21.15;;;4.13;;
53781;SDS011;39692;53.114;7.060;2022-10-29T03:50:10;46.38;;;5.30;;
53781;SDS011;39692;53.114;7.060;2022-10-29T03:52:36;20.80;;;4.28;;
53781;SDS011;39692;53.114;7.060;2022-10-29T03:55:02;25.27;;;5.45;;
53781;SDS011;39692;53.114;7.060;2022-10-29T03:57:28;11.55;;;4.20;;
53781;SDS011;39692;53.114;7.060;2022-10-29T03:59:53;53.38;;;6.97;;
53781;SDS011;39692;53.114;7.060;2022-10-29T04:02:20;19.80;;;5.10;;
53781;SDS011;39692;53.114;7.060;2022-10-29T04:04:46;9.43;;;4.38;;
53781;SDS011;39692;53.114;7.060;2022-10-29T04:07:11;21.60;;;5.13;;
53781;SDS011;39692;53.114;7.060;2022-10-29T04:09:37;12.32;;;5.40;;
53781;SDS011;39692;53.114;7.060;2022-10-29T04:12:03;15.32;;;5.05;;
53781;SDS011;39692;53.114;7.060;2022-10-29T04:14:29;17.92;;;5.63;;
53781;SDS011;39692;53.114;7.060;2022-10-29T04:16:55;9.60;;;5.00;;
53781;SDS011;39692;53.114;7.060;2022-10-29T04:19:22;19.23;;;7.45;;
53781;SDS011;39692;53.114;7.060;2022-10-29T04:21:47;16.83;;;5.38;;
53781;SDS011;39692;53.114;7.060;2022-10-29T04:24:13;25.45;;;5.60;;
53781;SDS011;39692;53.114;7.060;2022-10-29T04:26:40;25.60;;;4.72;;
53781;SDS011;39692;53.114;7.060;2022-10-29T04:29:07;17.10;;;4.53;;
53781;SDS011;39692;53.114;7.060;2022-10-29T04:31:33;27.88;;;5.28;;
53781;SDS011;39692;53.114;7.060;2022-10-29T04:34:00;24.92;;;4.45;;
53781;SDS011;39692;53.114;7.060;2022-10-29T04:36:25;37.30;;;5.97;;
53781;SDS011;39692;53.114;7.060;2022-10-29T04:38:51;28.48;;;6.35;;
53781;SDS011;39692;53.114;7.060;2022-10-29T04:41:17;22.80;;;7.45;;
53781;SDS011;39692;53.114;7.060;2022-10-29T04:43:42;31.40;;;8.07;;
53781;SDS011;39692;53.114;7.060;2022-10-29T04:46:08;25.50;;;6.93;;
53781;SDS011;39692;53.114;7.060;2022-10-29T04:48:35;39.92;;;8.07;;
53781;SDS011;39692;53.114;7.060;2022-10-29T04:51:01;47.03;;;7.95;;
53781;SDS011;39692;53.114;7.060;2022-10-29T04:53:27;23.73;;;6.65;;
53781;SDS011;39692;53.114;7.060;2022-10-29T04:55:57;30.17;;;8.73;;
53781;SDS011;39692;53.114;7.060;2022-10-29T04:58:24;23.33;;;7.13;;
53781;SDS011;39692;53.114;7.060;2022-10-29T05:00:50;36.28;;;8.82;;
53781;SDS011;39692;53.114;7.060;2022-10-29T05:03:15;40.28;;;8.85;;
53781;SDS011;39692;53.114;7.060;2022-10-29T05:05:41;33.00;;;8.43;;
53781;SDS011;39692;53.114;7.060;2022-10-29T05:08:08;31.23;;;8.60;;
53781;SDS011;39692;53.114;7.060;2022-10-29T05:10:36;40.53;;;8.38;;
53781;SDS011;39692;53.114;7.060;2022-10-29T05:13:06;28.60;;;9.23;;
53781;SDS011;39692;53.114;7.060;2022-10-29T05:15:34;31.98;;;8.40;;
53781;SDS011;39692;53.114;7.060;2022-10-29T05:18:00;30.98;;;7.82;;
53781;SDS011;39692;53.114;7.060;2022-10-29T05:20:27;59.67;;;11.25;;
53781;SDS011;39692;53.114;7.060;2022-10-29T05:23:03;27.55;;;7.90;;
53781;SDS011;39692;53.114;7.060;2022-10-29T05:25:31;45.50;;;10.30;;
53781;SDS011;39692;53.114;7.060;2022-10-29T05:28:19;36.75;;;8.55;;
53781;SDS011;39692;53.114;7.060;2022-10-29T05:30:45;45.85;;;12.93;;
53781;SDS011;39692;53.114;7.060;2022-10-29T05:33:13;36.63;;;8.68;;
53781;SDS011;39692;53.114;7.060;2022-10-29T05:35:40;45.80;;;9.20;;
53781;SDS011;39692;53.114;7.060;2022-10-29T05:38:06;31.50;;;9.73;;
53781;SDS011;39692;53.114;7.060;2022-10-29T05:40:33;51.03;;;12.55;;
53781;SDS011;39692;53.114;7.060;2022-10-29T05:42:59;40.63;;;11.40;;
53781;SDS011;39692;53.114;7.060;2022-10-29T05:45:25;44.60;;;9.18;;
53781;SDS011;39692;53.114;7.060;2022-10-29T05:47:55;40.22;;;10.13;;
53781;SDS011;39692;53.114;7.060;2022-10-29T05:50:21;34.13;;;13.02;;
53781;SDS011;39692;53.114;7.060;2022-10-29T05:52:56;36.75;;;10.65;;
53781;SDS011;39692;53.114;7.060;2022-10-29T05:55:22;27.17;;;9.93;;
53781;SDS011;39692;53.114;7.060;2022-10-29T05:57:48;29.58;;;10.02;;
53781;SDS011;39692;53.114;7.060;2022-10-29T06:00:15;33.08;;;11.32;;
53781;SDS011;39692;53.114;7.060;2022-10-29T06:02:41;52.38;;;12.20;;
53781;SDS011;39692;53.114;7.060;2022-10-29T06:05:08;38.72;;;11.63;;
53781;SDS011;39692;53.114;7.060;2022-10-29T06:07:34;37.33;;;10.27;;
53781;SDS011;39692;53.114;7.060;2022-10-29T06:10:00;37.75;;;10.65;;
53781;SDS011;39692;53.114;7.060;2022-10-29T06:12:26;25.85;;;11.10;;
53781;SDS011;39692;53.114;7.060;2022-10-29T06:14:52;48.08;;;12.30;;
53781;SDS011;39692;53.114;7.060;2022-10-29T06:17:18;26.92;;;10.90;;
53781;SDS011;39692;53.114;7.060;2022-10-29T06:19:44;40.17;;;11.23;;
53781;SDS011;39692;53.114;7.060;2022-10-29T06:22:10;29.55;;;10.27;;
53781;SDS011;39692;53.114;7.060;2022-10-29T06:24:36;57.20;;;12.40;;
53781;SDS011;39692;53.114;7.060;2022-10-29T06:27:02;54.65;;;11.27;;
53781;SDS011;39692;53.114;7.060;2022-10-29T06:29:28;36.80;;;10.82;;
53781;SDS011;39692;53.114;7.060;2022-10-29T06:31:54;26.88;;;12.82;;
53781;SDS011;39692;53.114;7.060;2022-10-29T06:34:20;26.98;;;9.80;;
53781;SDS011;39692;53.114;7.060;2022-10-29T06:36:46;40.22;;;9.98;;
53781;SDS011;39692;53.114;7.060;2022-10-29T06:39:12;45.40;;;9.90;;
53781;SDS011;39692;53.114;7.060;2022-10-29T06:41:38;30.00;;;13.35;;
53781;SDS011;39692;53.114;7.060;2022-10-29T06:44:04;41.88;;;11.93;;
53781;SDS011;39692;53.114;7.060;2022-10-29T06:46:30;30.38;;;8.75;;
53781;SDS011;39692;53.114;7.060;2022-10-29T06:48:58;43.00;;;14.32;;
53781;SDS011;39692;53.114;7.060;2022-10-29T06:51:26;48.58;;;12.15;;
53781;SDS011;39692;53.114;7.060;2022-10-29T06:53:51;54.80;;;10.85;;
53781;SDS011;39692;53.114;7.060;2022-10-29T06:56:19;26.77;;;9.55;;
53781;SDS011;39692;53.114;7.060;2022-10-29T06:58:45;57.50;;;16.10;;
53781;SDS011;39692;53.114;7.060;2022-10-29T07:01:11;35.67;;;12.18;;
53781;SDS011;39692;53.114;7.060;2022-10-29T07:03:36;46.80;;;11.93;;
53781;SDS011;39692;53.114;7.060;2022-10-29T07:06:02;26.98;;;11.68;;
53781;SDS011;39692;53.114;7.060;2022-10-29T07:08:28;33.97;;;15.52;;
53781;SDS011;39692;53.114;7.060;2022-10-29T07:10:54;35.97;;;10.35;;
53781;SDS011;39692;53.114;7.060;2022-10-29T07:13:20;37.08;;;10.75;;
53781;SDS011;39692;53.114;7.060;2022-10-29T07:15:46;37.13;;;12.32;;
53781;SDS011;39692;53.114;7.060;2022-10-29T07:18:12;44.15;;;11.68;;
53781;SDS011;39692;53.114;7.060;2022-10-29T07:20:42;35.38;;;15.98;;
53781;SDS011;39692;53.114;7.060;2022-10-29T07:23:09;33.90;;;12.57;;
53781;SDS011;39692;53.114;7.060;2022-10-29T07:25:36;41.40;;;17.40;;
53781;SDS011;39692;53.114;7.060;2022-10-29T07:28:07;49.00;;;18.02;;
53781;SDS011;39692;53.114;7.060;2022-10-29T07:30:40;36.97;;;16.88;;
53781;SDS011;39692;53.114;7.060;2022-10-29T07:33:06;39.10;;;17.08;;
53781;SDS011;39692;53.114;7.060;2022-10-29T07:35:32;45.58;;;14.65;;
53781;SDS011;39692;53.114;7.060;2022-10-29T07:38:02;46.35;;;18.83;;
53781;SDS011;39692;53.114;7.060;2022-10-29T07:40:30;36.58;;;16.17;;
53781;SDS011;39692;53.114;7.060;2022-10-29T07:42:56;40.45;;;18.77;;
53781;SDS011;39692;53.114;7.060;2022-10-29T07:45:21;42.60;;;18.20;;
53781;SDS011;39692;53.114;7.060;2022-10-29T07:47:47;31.27;;;12.65;;
53781;SDS011;39692;53.114;7.060;2022-10-29T07:50:13;46.95;;;19.20;;
53781;SDS011;39692;53.114;7.060;2022-10-29T07:52:39;46.58;;;14.20;;
53781;SDS011;39692;53.114;7.060;2022-10-29T07:55:06;43.47;;;20.63;;
53781;SDS011;39692;53.114;7.060;2022-10-29T07:57:32;46.95;;;18.02;;
53781;SDS011;39692;53.114;7.060;2022-10-29T07:59:58;38.65;;;16.48;;
53781;SDS011;39692;53.114;7.060;2022-10-29T08:02:24;42.05;;;17.23;;
53781;SDS011;39692;53.114;7.060;2022-10-29T08:04:49;43.97;;;17.10;;
53781;SDS011;39692;53.114;7.060;2022-10-29T08:07:15;45.38;;;20.45;;
53781;SDS011;39692;53.114;7.060;2022-10-29T08:09:41;45.63;;;21.40;;
53781;SDS011;39692;53.114;7.060;2022-10-29T08:12:09;38.97;;;18.45;;
53781;SDS011;39692;53.114;7.060;2022-10-29T08:14:35;46.38;;;20.30;;
53781;SDS011;39692;53.114;7.060;2022-10-29T08:17:01;56.85;;;23.25;;
53781;SDS011;39692;53.114;7.060;2022-10-29T08:19:27;46.63;;;21.80;;
53781;SDS011;39692;53.114;7.060;2022-10-29T08:21:54;50.22;;;19.92;;
53781;SDS011;39692;53.114;7.060;2022-10-29T08:24:20;42.40;;;19.95;;
53781;SDS011;39692;53.114;7.060;2022-10-29T08:26:46;51.50;;;24.88;;
53781;SDS011;39692;53.114;7.060;2022-10-29T08:29:13;35.53;;;21.23;;
53781;SDS011;39692;53.114;7.060;2022-10-29T08:31:39;40.67;;;23.55;;
53781;SDS011;39692;53.114;7.060;2022-10-29T08:34:05;36.88;;;20.38;;
53781;SDS011;39692;53.114;7.060;2022-10-29T08:36:30;36.13;;;21.52;;
53781;SDS011;39692;53.114;7.060;2022-10-29T08:38:56;35.50;;;21.50;;
53781;SDS011;39692;53.114;7.060;2022-10-29T08:41:32;36.60;;;21.02;;
53781;SDS011;39692;53.114;7.060;2022-10-29T08:44:06;36.17;;;23.52;;
53781;SDS011;39692;53.114;7.060;2022-10-29T08:49:29;34.75;;;22.33;;
53781;SDS011;39692;53.114;7.060;2022-10-29T08:52:02;37.75;;;21.50;;
53781;SDS011;39692;53.114;7.060;2022-10-29T08:54:32;30.05;;;22.30;;
53781;SDS011;39692;53.114;7.060;2022-10-29T08:57:14;30.52;;;20.67;;
53781;SDS011;39692;53.114;7.060;2022-10-29T08:59:48;32.03;;;20.13;;
53781;SDS011;39692;53.114;7.060;2022-10-29T09:02:28;31.38;;;20.05;;
53781;SDS011;39692;53.114;7.060;2022-10-29T09:04:54;28.92;;;21.20;;
53781;SDS011;39692;53.114;7.060;2022-10-29T09:10:10;30.02;;;18.63;;
53781;SDS011;39692;53.114;7.060;2022-10-29T09:23:54;26.20;;;18.90;;
53781;SDS011;39692;53.114;7.060;2022-10-29T09:26:55;25.08;;;18.08;;
53781;SDS011;39692;53.114;7.060;2022-10-29T09:34:49;24.60;;;16.65;;
53781;SDS011;39692;53.114;7.060;2022-10-29T09:37:20;25.40;;;16.33;;
53781;SDS011;39692;53.114;7.060;2022-10-29T09:39:55;24.60;;;16.90;;
53781;SDS011;39692;53.114;7.060;2022-10-29T09:42:25;22.98;;;15.88;;
53781;SDS011;39692;53.114;7.060;2022-10-29T09:45:01;29.20;;;15.38;;
53781;SDS011;39692;53.114;7.060;2022-10-29T09:47:40;22.25;;;15.40;;
53781;SDS011;39692;53.114;7.060;2022-10-29T09:50:38;19.83;;;15.30;;
53781;SDS011;39692;53.114;7.060;2022-10-29T09:53:10;22.60;;;16.35;;
53781;SDS011;39692;53.114;7.060;2022-10-29T09:55:38;24.08;;;16.25;;
53781;SDS011;39692;53.114;7.060;2022-10-29T09:58:24;22.90;;;16.40;;
53781;SDS011;39692;53.114;7.060;2022-10-29T10:00:51;24.20;;;16.10;;
53781;SDS011;39692;53.114;7.060;2022-10-29T10:03:37;20.85;;;14.88;;
53781;SDS011;39692;53.114;7.060;2022-10-29T10:06:10;24.75;;;15.63;;
53781;SDS011;39692;53.114;7.060;2022-10-29T10:08:57;23.83;;;15.57;;
53781;SDS011;39692;53.114;7.060;2022-10-29T10:11:23;27.30;;;15.35;;
53781;SDS011;39692;53.114;7.060;2022-10-29T10:13:57;25.30;;;16.30;;
53781;SDS011;39692;53.114;7.060;2022-10-29T10:16:27;22.70;;;16.17;;
53781;SDS011;39692;53.114;7.060;2022-10-29T10:18:56;27.80;;;16.02;;
53781;SDS011;39692;53.114;7.060;2022-10-29T10:21:23;25.13;;;16.60;;
53781;SDS011;39692;53.114;7.060;2022-10-29T10:23:52;22.02;;;16.15;;
53781;SDS011;39692;53.114;7.060;2022-10-29T10:29:16;23.98;;;15.90;;
53781;SDS011;39692;53.114;7.060;2022-10-29T10:31:43;23.02;;;15.13;;
53781;SDS011;39692;53.114;7.060;2022-10-29T10:34:24;22.88;;;15.85;;
53781;SDS011;39692;53.114;7.060;2022-10-29T10:37:01;22.33;;;15.68;;
53781;SDS011;39692;53.114;7.060;2022-10-29T10:39:36;20.30;;;16.05;;
53781;SDS011;39692;53.114;7.060;2022-10-29T10:42:25;24.17;;;15.98;;
53781;SDS011;39692;53.114;7.060;2022-10-29T10:44:52;20.70;;;14.98;;
53781;SDS011;39692;53.114;7.060;2022-10-29T10:47:30;25.10;;;15.30;;
53781;SDS011;39692;53.114;7.060;2022-10-29T10:52:56;19.87;;;14.97;;
53781;SDS011;39692;53.114;7.060;2022-10-29T10:55:27;19.77;;;14.23;;
53781;SDS011;39692;53.114;7.060;2022-10-29T10:57:59;20.13;;;14.50;;
53781;SDS011;39692;53.114;7.060;2022-10-29T11:00:52;17.02;;;12.43;;
53781;SDS011;39692;53.114;7.060;2022-10-29T11:03:33;17.83;;;13.25;;
53781;SDS011;39692;53.114;7.060;2022-10-29T11:08:54;18.35;;;13.02;;
53781;SDS011;39692;53.114;7.060;2022-10-29T11:14:11;16.45;;;11.25;;
53781;SDS011;39692;53.114;7.060;2022-10-29T11:16:49;18.58;;;11.93;;
53781;SDS011;39692;53.114;7.060;2022-10-29T11:19:26;16.40;;;11.07;;
53781;SDS011;39692;53.114;7.060;2022-10-29T11:27:36;21.67;;;11.52;;
53781;SDS011;39692;53.114;7.060;2022-10-29T11:30:21;18.13;;;11.57;;
53781;SDS011;39692;53.114;7.060;2022-10-29T11:40:51;17.13;;;11.10;;
53781;SDS011;39692;53.114;7.060;2022-10-29T11:43:31;13.80;;;10.77;;
53781;SDS011;39692;53.114;7.060;2022-10-29T11:56:46;17.08;;;10.20;;
53781;SDS011;39692;53.114;7.060;2022-10-29T12:10:16;15.52;;;9.95;;
53781;SDS011;39692;53.114;7.060;2022-10-29T12:18:54;16.27;;;9.88;;
53781;SDS011;39692;53.114;7.060;2022-10-29T12:30:13;15.63;;;9.23;;
53781;SDS011;39692;53.114;7.060;2022-10-29T12:35:14;15.35;;;10.07;;
53781;SDS011;39692;53.114;7.060;2022-10-29T12:40:15;17.23;;;9.82;;
53781;SDS011;39692;53.114;7.060;2022-10-29T12:42:46;20.85;;;10.45;;
53781;SDS011;39692;53.114;7.060;2022-10-29T12:48:01;22.67;;;11.07;;
53781;SDS011;39692;53.114;7.060;2022-10-29T12:53:27;15.57;;;11.27;;
53781;SDS011;39692;53.114;7.060;2022-10-29T12:56:06;16.92;;;11.95;;
53781;SDS011;39692;53.114;7.060;2022-10-29T13:09:16;19.23;;;12.35;;
53781;SDS011;39692;53.114;7.060;2022-10-29T13:11:48;16.67;;;11.57;;
53781;SDS011;39692;53.114;7.060;2022-10-29T13:14:41;18.50;;;12.30;;
53781;SDS011;39692;53.114;7.060;2022-10-29T13:19:58;18.60;;;11.75;;
53781;SDS011;39692;53.114;7.060;2022-10-29T13:25:26;18.23;;;12.68;;
53781;SDS011;39692;53.114;7.060;2022-10-29T13:28:40;26.40;;;12.77;;
53781;SDS011;39692;53.114;7.060;2022-10-29T13:30:45;18.63;;;12.48;;
53781;SDS011;39692;53.114;7.060;2022-10-29T13:36:57;23.98;;;13.00;;
53781;SDS011;39692;53.114;7.060;2022-10-29T13:41:36;21.08;;;13.13;;
53781;SDS011;39692;53.114;7.060;2022-10-29T13:54:54;22.30;;;13.80;;
53781;SDS011;39692;53.114;7.060;2022-10-29T13:59:57;23.63;;;14.18;;
53781;SDS011;39692;53.114;7.060;2022-10-29T14:13:09;23.92;;;15.13;;
53781;SDS011;39692;53.114;7.060;2022-10-29T14:18:30;24.73;;;15.15;;
53781;SDS011;39692;53.114;7.060;2022-10-29T14:20:57;21.08;;;14.88;;
53781;SDS011;39692;53.114;7.060;2022-10-29T14:23:25;23.65;;;15.30;;
53781;SDS011;39692;53.114;7.060;2022-10-29T14:25:53;22.20;;;15.77;;
53781;SDS011;39692;53.114;7.060;2022-10-29T14:28:31;22.25;;;15.70;;
53781;SDS011;39692;53.114;7.060;2022-10-29T14:31:11;24.83;;;15.82;;
53781;SDS011;39692;53.114;7.060;2022-10-29T14:33:39;20.77;;;14.43;;
53781;SDS011;39692;53.114;7.060;2022-10-29T14:38:46;21.85;;;14.35;;
53781;SDS011;39692;53.114;7.060;2022-10-29T14:41:14;26.77;;;15.45;;
53781;SDS011;39692;53.114;7.060;2022-10-29T14:43:41;22.63;;;15.48;;
53781;SDS011;39692;53.114;7.060;2022-10-29T14:46:12;27.50;;;15.80;;
53781;SDS011;39692;53.114;7.060;2022-10-29T14:48:59;23.60;;;15.15;;
53781;SDS011;39692;53.114;7.060;2022-10-29T14:51:39;23.58;;;15.10;;
53781;SDS011;39692;53.114;7.060;2022-10-29T14:54:15;23.55;;;14.95;;
53781;SDS011;39692;53.114;7.060;2022-10-29T14:56:47;24.90;;;14.95;;
53781;SDS011;39692;53.114;7.060;2022-10-29T14:59:17;23.42;;;15.63;;
53781;SDS011;39692;53.114;7.060;2022-10-29T15:01:48;23.20;;;15.02;;
53781;SDS011;39692;53.114;7.060;2022-10-29T15:04:23;21.55;;;14.20;;
53781;SDS011;39692;53.114;7.060;2022-10-29T15:06:51;18.67;;;13.52;;
53781;SDS011;39692;53.114;7.060;2022-10-29T15:09:20;22.40;;;14.57;;
53781;SDS011;39692;53.114;7.060;2022-10-29T15:12:02;19.55;;;14.30;;
53781;SDS011;39692;53.114;7.060;2022-10-29T15:14:33;22.98;;;15.40;;
53781;SDS011;39692;53.114;7.060;2022-10-29T15:17:01;24.52;;;13.88;;
53781;SDS011;39692;53.114;7.060;2022-10-29T15:20:04;23.42;;;14.45;;
53781;SDS011;39692;53.114;7.060;2022-10-29T15:24:59;23.83;;;15.05;;
53781;SDS011;39692;53.114;7.060;2022-10-29T15:27:27;21.98;;;13.95;;
53781;SDS011;39692;53.114;7.060;2022-10-29T15:29:53;20.42;;;14.50;;
53781;SDS011;39692;53.114;7.060;2022-10-29T15:32:19;24.05;;;14.32;;
53781;SDS011;39692;53.114;7.060;2022-10-29T15:34:53;21.65;;;14.30;;
53781;SDS011;39692;53.114;7.060;2022-10-29T15:42:22;23.80;;;13.60;;
53781;SDS011;39692;53.114;7.060;2022-10-29T15:47:32;23.08;;;14.32;;
53781;SDS011;39692;53.114;7.060;2022-10-29T15:49:59;21.98;;;13.93;;
53781;SDS011;39692;53.114;7.060;2022-10-29T15:52:26;19.63;;;13.95;;
53781;SDS011;39692;53.114;7.060;2022-10-29T15:54:58;20.65;;;14.32;;
53781;SDS011;39692;53.114;7.060;2022-10-29T15:57:25;20.35;;;13.90;;
53781;SDS011;39692;53.114;7.060;2022-10-29T15:59:51;21.05;;;14.85;;
53781;SDS011;39692;53.114;7.060;2022-10-29T16:02:21;21.45;;;14.30;;
53781;SDS011;39692;53.114;7.060;2022-10-29T16:04:49;17.45;;;13.15;;
53781;SDS011;39692;53.114;7.060;2022-10-29T16:07:15;21.38;;;13.63;;
53781;SDS011;39692;53.114;7.060;2022-10-29T16:09:43;21.77;;;13.65;;
53781;SDS011;39692;53.114;7.060;2022-10-29T16:12:11;24.20;;;14.93;;
53781;SDS011;39692;53.114;7.060;2022-10-29T16:14:37;23.45;;;14.93;;
53781;SDS011;39692;53.114;7.060;2022-10-29T16:17:03;25.88;;;15.85;;
53781;SDS011;39692;53.114;7.060;2022-10-29T16:19:37;26.02;;;15.98;;
53781;SDS011;39692;53.114;7.060;2022-10-29T16:22:02;22.70;;;15.60;;
53781;SDS011;39692;53.114;7.060;2022-10-29T16:24:28;23.83;;;16.23;;
53781;SDS011;39692;53.114;7.060;2022-10-29T16:26:54;26.48;;;15.88;;
53781;SDS011;39692;53.114;7.060;2022-10-29T16:29:20;26.98;;;16.85;;
53781;SDS011;39692;53.114;7.060;2022-10-29T16:31:45;25.88;;;15.90;;
53781;SDS011;39692;53.114;7.060;2022-10-29T16:34:11;25.50;;;17.77;;
53781;SDS011;39692;53.114;7.060;2022-10-29T16:36:38;21.48;;;15.48;;
53781;SDS011;39692;53.114;7.060;2022-10-29T16:39:03;26.45;;;15.70;;
53781;SDS011;39692;53.114;7.060;2022-10-29T16:41:29;24.58;;;15.98;;
53781;SDS011;39692;53.114;7.060;2022-10-29T16:43:55;27.65;;;15.18;;
53781;SDS011;39692;53.114;7.060;2022-10-29T16:46:21;25.10;;;16.02;;
53781;SDS011;39692;53.114;7.060;2022-10-29T16:48:46;24.77;;;15.68;;
53781;SDS011;39692;53.114;7.060;2022-10-29T16:51:12;25.40;;;16.90;;
53781;SDS011;39692;53.114;7.060;2022-10-29T16:53:38;20.67;;;14.60;;
53781;SDS011;39692;53.114;7.060;2022-10-29T16:56:03;27.42;;;16.13;;
53781;SDS011;39692;53.114;7.060;2022-10-29T16:58:30;25.67;;;15.48;;
53781;SDS011;39692;53.114;7.060;2022-10-29T17:01:05;21.08;;;15.55;;
53781;SDS011;39692;53.114;7.060;2022-10-29T17:03:32;24.45;;;14.98;;
53781;SDS011;39692;53.114;7.060;2022-10-29T17:06:02;20.73;;;14.55;;
53781;SDS011;39692;53.114;7.060;2022-10-29T17:08:29;19.27;;;15.18;;
53781;SDS011;39692;53.114;7.060;2022-10-29T17:10:59;22.58;;;15.27;;
53781;SDS011;39692;53.114;7.060;2022-10-29T17:13:26;26.92;;;15.63;;
53781;SDS011;39692;53.114;7.060;2022-10-29T17:15:52;22.30;;;13.57;;
53781;SDS011;39692;53.114;7.060;2022-10-29T17:18:18;21.30;;;14.23;;
53781;SDS011;39692;53.114;7.060;2022-10-29T17:20:52;22.15;;;13.57;;
53781;SDS011;39692;53.114;7.060;2022-10-29T17:23:22;24.95;;;14.23;;
53781;SDS011;39692;53.114;7.060;2022-10-29T17:25:52;22.63;;;14.20;;
53781;SDS011;39692;53.114;7.060;2022-10-29T17:28:19;22.77;;;14.18;;
53781;SDS011;39692;53.114;7.060;2022-10-29T17:30:46;23.50;;;14.55;;
53781;SDS011;39692;53.114;7.060;2022-10-29T17:33:11;23.55;;;14.48;;
53781;SDS011;39692;53.114;7.060;2022-10-29T17:35:38;21.27;;;14.05;;
53781;SDS011;39692;53.114;7.060;2022-10-29T17:38:03;23.60;;;14.57;;
53781;SDS011;39692;53.114;7.060;2022-10-29T17:40:29;21.10;;;14.00;;
53781;SDS011;39692;53.114;7.060;2022-10-29T17:42:55;22.42;;;14.27;;